Time;durP1;ratioP1;P1;durP2;ratioP2;P2;SDS_P1;SDS_P2;PMS_P1;PMS_P2;Temp;Humidity;BMP_temperature;BMP_pressure;BME280_temperature;BME280_humidity;BME280_pressure;Samples;Min_cycle;Max_cycle;Signal;HPM_P1;HPM_P2
2022/08/22 00:03:41;;;;;;;9.77;8.77;;;27.00;60.40;;;;;;4930936;52;20999;-34
2022/08/22 00:11:47;;;;;;;10.60;8.90;;;27.00;60.40;;;;;;4956418;52;20976;-37
2022/08/22 00:17:12;;;;;;;8.90;8.00;;;27.00;60.40;;;;;;4921298;52;20991;-27
2022/08/22 00:22:33;;;;;;;9.77;8.00;;;27.00;60.40;;;;;;4977952;52;20955;-27
2022/08/22 00:29:00;;;;;;;9.35;7.95;;;27.00;60.40;;;;;;4911841;52;21089;-32
2022/08/22 00:34:07;;;;;;;9.35;8.18;;;27.00;60.40;;;;;;4916620;52;20984;-30
2022/08/22 00:39:23;;;;;;;8.27;7.47;;;27.00;60.40;;;;;;4950508;52;21035;-31
2022/08/22 00:51:53;;;;;;;8.73;7.78;;;27.00;60.40;;;;;;4910743;56;20996;-28
2022/08/22 01:00:11;;;;;;;8.77;7.73;;;27.00;60.40;;;;;;4924651;52;21015;-36
2022/08/22 01:05:51;;;;;;;7.87;7.05;;;27.00;60.40;;;;;;4938243;52;21525;-37
2022/08/22 01:11:19;;;;;;;9.70;7.87;;;27.00;60.40;;;;;;4960787;52;21150;-26
2022/08/22 01:17:33;;;;;;;8.20;7.25;;;27.00;60.40;;;;;;4927999;52;20991;-36
2022/08/22 01:25:30;;;;;;;7.95;7.10;;;27.00;60.40;;;;;;4912849;52;21020;-32
2022/08/22 01:33:27;;;;;;;8.20;7.40;;;27.00;60.40;;;;;;4918251;52;21103;-35
2022/08/22 01:42:40;;;;;;;7.47;6.65;;;27.00;60.50;;;;;;4915940;52;20991;-35
2022/08/22 01:48:15;;;;;;;9.55;7.28;;;27.00;60.40;;;;;;4912100;52;21515;-31
2022/08/22 01:54:23;;;;;;;9.00;6.72;;;27.00;60.40;;;;;;4911136;52;20999;-29
2022/08/22 01:59:48;;;;;;;7.82;6.78;;;27.00;60.40;;;;;;4953812;52;20967;-28
2022/08/22 02:10:57;;;;;;;7.47;6.75;;;27.00;60.40;;;;;;4959790;52;21023;-35
2022/08/22 02:18:23;;;;;;;7.53;6.82;;;27.00;60.40;;;;;;4911128;56;21453;-35
2022/08/22 02:23:42;;;;;;;7.32;6.62;;;27.00;60.40;;;;;;4958812;52;21003;-33
2022/08/22 02:29:35;;;;;;;7.43;6.72;;;27.00;60.40;;;;;;4935795;52;21003;-30
2022/08/22 02:35:07;;;;;;;7.30;6.60;;;27.00;60.40;;;;;;4927409;52;21980;-35
2022/08/22 02:43:47;;;;;;;6.80;6.10;;;27.00;60.40;;;;;;4910029;53;20983;-28
2022/08/22 02:52:33;;;;;;;7.18;5.97;;;26.90;60.30;;;;;;4934008;52;21058;-26
2022/08/22 03:04:45;;;;;;;6.70;5.82;;;27.00;60.40;;;;;;4913515;52;21046;-27
2022/08/22 03:10:33;;;;;;;6.93;6.18;;;27.00;60.40;;;;;;4924561;52;21629;-37
2022/08/22 03:15:47;;;;;;;6.50;5.90;;;27.00;60.40;;;;;;4920605;52;21584;-29
2022/08/22 03:20:57;;;;;;;7.12;6.20;;;27.00;60.40;;;;;;4913052;52;20971;-38
2022/08/22 03:26:17;;;;;;;6.57;5.93;;;27.00;60.40;;;;;;4938541;52;21607;-30
2022/08/22 03:31:21;;;;;;;6.18;5.57;;;27.00;60.40;;;;;;4948468;52;21055;-34
2022/08/22 03:36:27;;;;;;;5.82;5.30;;;26.90;60.30;;;;;;4949926;52;21301;-38
2022/08/22 03:42:23;;;;;;;6.40;5.80;;;27.00;60.30;;;;;;4910600;56;21557;-35
2022/08/22 03:47:59;;;;;;;5.40;4.90;;;26.90;60.20;;;;;;4912441;52;21062;-34
2022/08/22 03:55:13;;;;;;;6.35;5.65;;;27.00;60.30;;;;;;4937902;52;20960;-31
2022/08/22 04:01:43;;;;;;;6.25;5.65;;;27.00;60.30;;;;;;4909964;56;20975;-31
2022/08/22 04:12:09;;;;;;;6.82;5.68;;;26.90;60.20;;;;;;4952877;52;20976;-34
2022/08/22 04:24:17;;;;;;;5.53;5.03;;;27.00;60.30;;;;;;4941520;52;21473;-37
2022/08/22 04:29:36;;;;;;;6.05;5.43;;;26.90;60.20;;;;;;4912706;52;21012;-36
2022/08/22 04:35:07;;;;;;;5.03;4.53;;;26.90;60.10;;;;;;4954857;52;20991;-29
2022/08/22 04:40:42;;;;;;;5.53;4.93;;;26.90;60.10;;;;;;4915055;52;21014;-29
2022/08/22 04:45:51;;;;;;;5.78;5.18;;;26.90;60.10;;;;;;4918220;52;21445;-30
2022/08/22 04:51:09;;;;;;;5.47;4.97;;;26.90;60.10;;;;;;4935302;52;21058;-30
2022/08/22 04:57:52;;;;;;;5.62;5.12;;;26.90;60.00;;;;;;4910133;56;21039;-34
2022/08/22 05:02:56;;;;;;;6.20;5.60;;;26.90;60.00;;;;;;4928797;52;21086;-33
2022/08/22 05:08:00;;;;;;;5.68;5.07;;;26.90;60.00;;;;;;4970260;52;21509;-29
2022/08/22 05:13:06;;;;;;;6.85;4.95;;;26.90;60.00;;;;;;4927197;52;21174;-27
2022/08/22 05:18:17;;;;;;;5.25;4.75;;;26.90;59.90;;;;;;4910439;56;20991;-37
2022/08/22 05:23:37;;;;;;;6.20;5.03;;;26.90;59.90;;;;;;4910128;56;21481;-30
2022/08/22 05:28:49;;;;;;;5.50;4.90;;;26.90;59.90;;;;;;4923569;52;20988;-32
2022/08/22 05:34:12;;;;;;;5.43;4.82;;;26.90;59.80;;;;;;4930699;52;21544;-32
2022/08/22 05:39:20;;;;;;;5.43;4.87;;;26.90;59.80;;;;;;4930603;52;21510;-34
2022/08/22 05:44:33;;;;;;;5.47;4.97;;;26.90;59.80;;;;;;4917904;52;20999;-36
2022/08/22 05:49:46;;;;;;;5.72;4.72;;;26.90;59.80;;;;;;4954744;52;21521;-28
2022/08/22 05:55:01;;;;;;;5.30;4.80;;;26.90;59.80;;;;;;4953131;52;21050;-35
2022/08/22 06:00:15;;;;;;;5.55;4.90;;;26.80;59.70;;;;;;4934164;52;20963;-25
2022/08/22 06:05:28;;;;;;;5.70;5.10;;;26.80;59.60;;;;;;4912484;52;20999;-30
2022/08/22 06:10:49;;;;;;;5.43;4.93;;;26.90;59.70;;;;;;4915235;52;21517;-28
2022/08/22 06:16:49;;;;;;;5.25;4.75;;;26.80;59.60;;;;;;4915405;52;21058;-31
2022/08/22 06:21:53;;;;;;;5.43;4.87;;;26.90;59.60;;;;;;4920840;52;20967;-30
2022/08/22 06:27:11;;;;;;;5.68;4.85;;;26.90;59.60;;;;;;4941571;52;20999;-36
2022/08/22 06:32:15;;;;;;;5.00;4.60;;;26.80;59.50;;;;;;4909459;56;20984;-30
2022/08/22 06:37:44;;;;;;;5.25;4.75;;;26.80;59.50;;;;;;4922086;52;21469;-29
2022/08/22 06:42:50;;;;;;;5.35;4.85;;;26.90;59.60;;;;;;4946384;52;21513;-31
2022/08/22 06:48:10;;;;;;;22.08;10.38;;;26.80;59.50;;;;;;4917131;52;21031;-29
2022/08/22 06:53:37;;;;;;;26.45;10.95;;;26.80;58.50;;;;;;4957830;52;21011;-36
2022/08/22 06:58:46;;;;;;;19.45;10.25;;;26.70;57.60;;;;;;4929906;52;21461;-30
2022/08/22 07:03:53;;;;;;;22.13;13.62;;;26.60;58.10;;;;;;4934148;52;21010;-39
2022/08/22 07:08:55;;;;;;;26.27;16.58;;;26.60;57.50;;;;;;4928312;52;21509;-34
2022/08/22 07:14:13;;;;;;;31.40;19.77;;;26.50;57.60;;;;;;4940093;52;21022;-29
2022/08/22 07:19:36;;;;;;;30.90;16.62;;;26.50;57.60;;;;;;4935693;52;21020;-27
2022/08/22 07:24:51;;;;;;;22.83;15.10;;;26.40;57.30;;;;;;4921054;52;21311;-29
2022/08/22 07:30:05;;;;;;;25.52;17.87;;;26.30;57.50;;;;;;4911413;52;21118;-27
2022/08/22 07:35:29;;;;;;;27.58;18.95;;;26.30;57.70;;;;;;4930692;52;21034;-29
2022/08/22 07:40:37;;;;;;;47.78;29.58;;;26.40;58.00;;;;;;4909612;56;20967;-34
2022/08/22 07:52:29;;;;;;;55.53;36.88;;;26.50;57.90;;;;;;4913145;52;20992;-32
2022/08/22 07:57:35;;;;;;;60.22;37.58;;;26.40;57.60;;;;;;4935098;52;20988;-29
2022/08/22 08:02:38;;;;;;;;;;;26.40;57.60;;;;;;4937259;52;21026;-32
2022/08/22 08:07:46;;;;;;;61.83;41.78;;;26.40;57.60;;;;;;4910075;52;20127;-31
2022/08/22 08:12:51;;;;;;;64.60;44.67;;;26.40;57.50;;;;;;4919307;52;21639;-31
2022/08/22 08:17:59;;;;;;;58.90;42.78;;;26.50;57.60;;;;;;4931759;52;20999;-38
2022/08/22 08:23:01;;;;;;;59.63;40.78;;;26.60;57.50;;;;;;4933973;52;21947;-33
2022/08/22 08:33:27;;;;;;;58.42;40.95;;;26.70;57.30;;;;;;4910415;52;21007;-34
2022/08/22 08:40:04;;;;;;;55.90;39.50;;;26.70;57.20;;;;;;4925044;52;21848;-31
2022/08/22 08:45:23;;;;;;;50.17;37.28;;;26.70;57.10;;;;;;4909925;56;20975;-36
2022/08/22 08:51:17;;;;;;;45.28;34.60;;;26.80;57.10;;;;;;4911978;52;21063;-32
2022/08/22 08:59:56;;;;;;;53.05;34.80;;;26.80;57.00;;;;;;4909550;56;21066;-36
2022/08/22 09:08:50;;;;;;;51.33;34.13;;;26.80;56.90;;;;;;4925244;52;20999;-31
2022/08/22 09:15:41;;;;;;;82.00;45.55;;;26.80;57.00;;;;;;4952185;52;21035;-34
2022/08/22 09:27:29;;;;;;;65.00;44.33;;;26.70;57.70;;;;;;4917047;52;21593;-38
2022/08/22 09:33:15;;;;;;;40.20;26.42;;;26.60;57.60;;;;;;4935949;52;21477;-33
2022/08/22 09:38:46;;;;;;;63.17;35.20;;;26.60;57.80;;;;;;4944722;52;20980;-39
2022/08/22 09:44:16;;;;;;;50.58;32.60;;;26.50;57.90;;;;;;4919661;52;21015;-29
2022/08/22 09:50:55;;;;;;;56.28;38.65;;;26.50;58.30;;;;;;4932992;52;20999;-35
2022/08/22 09:56:25;;;;;;;30.67;21.02;;;26.40;58.50;;;;;;4910077;56;20983;-30
2022/08/22 10:01:59;;;;;;;30.65;17.92;;;26.30;57.90;;;;;;4917953;52;21438;-29
2022/08/22 10:08:54;;;;;;;56.35;38.90;;;26.20;58.20;;;;;;4912247;52;20991;-33
2022/08/22 10:17:07;;;;;;;39.85;27.45;;;26.20;58.40;;;;;;4437559;52;10000525;-33
2022/08/22 10:23:14;;;;;;;63.70;45.17;;;26.20;58.30;;;;;;4808185;54;21089;-30
2022/08/22 10:28:41;;;;;;;55.38;38.33;;;26.20;58.60;;;;;;4812583;54;21009;-37
2022/08/22 10:34:04;;;;;;;96.18;66.70;;;26.20;58.60;;;;;;4804497;54;21060;-36
2022/08/22 10:39:09;;;;;;;82.18;57.28;;;26.20;58.80;;;;;;4799896;58;21011;-37
2022/08/22 10:45:14;;;;;;;72.47;51.42;;;26.20;58.70;;;;;;4801077;54;21551;-38
2022/08/22 10:50:22;;;;;;;70.93;54.33;;;26.30;58.70;;;;;;4803078;54;21030;-34
2022/08/22 10:55:26;;;;;;;87.53;65.97;;;26.30;58.70;;;;;;4800261;58;21601;-35
2022/08/22 11:00:57;;;;;;;115.37;86.40;;;26.30;58.60;;;;;;4799976;54;21249;-31
2022/08/22 11:06:01;;;;;;;77.40;53.83;;;26.30;58.60;;;;;;4813365;54;21547;-37
2022/08/22 11:18:06;;;;;;;70.95;45.40;;;26.30;58.40;;;;;;4806907;54;21567;-33
2022/08/22 11:23:32;;;;;;;59.28;40.67;;;26.30;58.00;;;;;;4800142;58;21586;-34
2022/08/22 11:34:59;;;;;;;61.88;40.17;;;26.40;58.00;;;;;;4823810;54;21107;-36
2022/08/22 11:40:13;;;;;;;53.28;38.85;;;26.50;57.80;;;;;;4820335;54;21009;-35
2022/08/22 11:45:22;;;;;;;49.70;36.70;;;26.60;57.70;;;;;;4817039;54;21041;-33
2022/08/22 11:52:14;;;;;;;48.60;35.78;;;26.60;57.50;;;;;;4799117;58;21018;-35
2022/08/22 11:57:40;;;;;;;47.58;34.97;;;26.70;57.50;;;;;;4804761;54;21108;-34
2022/08/22 12:03:26;;;;;;;45.45;33.90;;;26.70;57.40;;;;;;4818438;54;21009;-35
2022/08/22 12:09:57;;;;;;;39.88;32.15;;;26.70;57.20;;;;;;4811169;54;21472;-34
2022/08/22 12:15:21;;;;;;;37.08;29.37;;;26.70;57.20;;;;;;4798639;58;21022;-32
2022/08/22 12:20:54;;;;;;;32.72;21.95;;;26.70;56.90;;;;;;4837321;54;21041;-34
2022/08/22 12:26:25;;;;;;;103.70;72.55;;;26.60;56.20;;;;;;4806079;54;21495;-35
2022/08/22 12:32:34;;;;;;;69.20;48.95;;;26.50;56.40;;;;;;4802333;54;20989;-30
2022/08/22 12:37:55;;;;;;;54.10;32.95;;;26.50;56.30;;;;;;4807445;54;21053;-33
2022/08/22 12:44:03;;;;;;;42.50;26.30;;;26.50;56.20;;;;;;4802871;54;21005;-38
2022/08/22 12:49:35;;;;;;;43.47;27.10;;;26.40;55.90;;;;;;4848437;54;20997;-36
2022/08/22 12:57:48;;;;;;;40.42;25.90;;;26.50;56.20;;;;;;4809935;54;21621;-28
2022/08/22 13:02:52;;;;;;;38.10;24.55;;;26.70;56.40;;;;;;4836580;54;20997;-36
2022/08/22 13:08:01;;;;;;;36.38;23.45;;;26.70;56.40;;;;;;4803168;54;21578;-35
2022/08/22 13:13:04;;;;;;;35.67;22.00;;;26.80;56.70;;;;;;4798893;58;21994;-34
2022/08/22 13:18:12;;;;;;;34.35;21.58;;;26.80;56.70;;;;;;4800260;58;21548;-27
2022/08/22 13:23:40;;;;;;;36.70;22.70;;;26.90;57.00;;;;;;4863259;54;21108;-34
2022/08/22 13:29:05;;;;;;;38.38;23.35;;;26.90;55.70;;;;;;4821546;54;21013;-35
2022/08/22 13:35:04;;;;;;;37.00;19.25;;;26.70;55.40;;;;;;4809078;54;21044;-27
2022/08/22 13:40:11;;;;;;;39.90;24.08;;;26.60;55.50;;;;;;4800127;55;21056;-35
2022/08/22 13:45:24;;;;;;;29.95;20.25;;;26.60;55.40;;;;;;4804632;54;21025;-32
2022/08/22 13:50:31;;;;;;;25.52;18.33;;;26.50;55.80;;;;;;4797155;58;21017;-31
2022/08/22 13:55:54;;;;;;;28.12;15.85;;;26.50;55.80;;;;;;4800481;54;21072;-39
2022/08/22 14:03:02;;;;;;;20.35;15.60;;;26.60;56.10;;;;;;4798047;58;21064;-32
2022/08/22 14:09:18;;;;;;;20.30;14.82;;;26.70;56.10;;;;;;4847516;54;21013;-27
2022/08/22 14:14:32;;;;;;;25.75;16.58;;;26.70;56.10;;;;;;4800404;54;21080;-33
2022/08/22 14:19:39;;;;;;;20.70;15.27;;;26.70;56.10;;;;;;4820659;54;21121;-38
2022/08/22 14:24:57;;;;;;;20.33;14.02;;;26.70;56.10;;;;;;4801987;54;21061;-34
2022/08/22 14:30:16;;;;;;;18.75;13.98;;;26.70;56.10;;;;;;4809966;54;21001;-30
2022/08/22 14:35:29;;;;;;;18.08;14.45;;;26.70;56.10;;;;;;4803767;54;20973;-27
2022/08/22 14:40:35;;;;;;;17.62;14.05;;;26.60;56.10;;;;;;4810951;54;21476;-32
2022/08/22 14:45:42;;;;;;;19.02;14.45;;;26.70;56.20;;;;;;4800614;58;20993;-33
2022/08/22 14:50:59;;;;;;;19.58;14.70;;;26.70;56.20;;;;;;4818002;54;21595;-28
2022/08/22 14:56:07;;;;;;;17.48;13.73;;;26.70;56.20;;;;;;4803391;54;21005;-27
2022/08/22 15:01:11;;;;;;;18.42;14.30;;;26.70;56.20;;;;;;4811226;54;20989;-32
2022/08/22 15:06:28;;;;;;;16.75;13.40;;;26.70;56.30;;;;;;4811740;54;21503;-27
2022/08/22 15:11:30;;;;;;;18.25;13.48;;;26.70;56.30;;;;;;4805806;54;21045;-31
2022/08/22 15:16:42;;;;;;;18.05;13.85;;;26.70;56.30;;;;;;4803623;54;21053;-35
2022/08/22 15:21:44;;;;;;;16.70;13.77;;;26.60;56.20;;;;;;4804223;54;21563;-39
2022/08/22 15:26:53;;;;;;;16.02;13.35;;;26.70;56.30;;;;;;4801114;54;21065;-36
2022/08/22 15:31:58;;;;;;;18.42;14.20;;;26.70;56.30;;;;;;4800921;54;21009;-30
2022/08/22 15:37:26;;;;;;;15.15;13.45;;;26.70;56.30;;;;;;4811736;54;21057;-31
2022/08/22 15:42:32;;;;;;;15.70;12.98;;;26.60;56.30;;;;;;4800112;55;21523;-27
2022/08/22 15:47:45;;;;;;;16.62;13.52;;;26.70;56.40;;;;;;4818799;54;22175;-34
2022/08/22 15:53:10;;;;;;;15.48;12.85;;;26.60;56.40;;;;;;4819534;54;21009;-35
2022/08/22 15:58:20;;;;;;;17.37;12.88;;;26.60;56.40;;;;;;4813596;54;21468;-34
2022/08/22 16:03:27;;;;;;;14.20;12.37;;;26.60;56.40;;;;;;4804690;54;21073;-27
2022/08/22 16:08:45;;;;;;;;;;;26.60;56.40;;;;;;4822104;54;21058;-28
2022/08/22 16:13:47;;;;;;;15.82;12.70;;;26.60;56.40;;;;;;4813263;54;20177;-29
2022/08/22 16:19:33;;;;;;;14.75;12.60;;;26.60;56.40;;;;;;4812862;54;21495;-27
2022/08/22 16:24:57;;;;;;;14.52;12.95;;;26.60;56.40;;;;;;4816582;54;21129;-30
2022/08/22 16:30:04;;;;;;;14.23;12.23;;;26.60;56.40;;;;;;4799925;58;21519;-31
2022/08/22 16:35:05;;;;;;;15.32;12.55;;;26.60;56.40;;;;;;4800574;58;21036;-25
2022/08/22 16:40:23;;;;;;;13.52;11.30;;;26.60;56.40;;;;;;4819764;54;21495;-37
2022/08/22 16:45:44;;;;;;;13.88;12.20;;;26.60;56.40;;;;;;4842154;54;21187;-29
2022/08/22 16:51:17;;;;;;;14.48;12.27;;;26.60;56.40;;;;;;4863928;54;21670;-28
2022/08/22 16:59:10;;;;;;;13.90;11.85;;;26.60;56.50;;;;;;4811379;54;21045;-34
2022/08/22 17:04:44;;;;;;;12.43;11.12;;;26.60;56.50;;;;;;4805763;54;21128;-34
2022/08/22 17:13:02;;;;;;;12.55;11.18;;;26.60;56.50;;;;;;4815541;54;21033;-28
2022/08/22 17:21:10;;;;;;;15.27;11.70;;;26.60;56.50;;;;;;4804773;54;21004;-31
2022/08/22 17:27:49;;;;;;;14.25;11.55;;;26.60;56.50;;;;;;4846272;54;21479;-26
2022/08/22 17:42:45;;;;;;;14.40;11.10;;;26.60;56.50;;;;;;4825342;54;21088;-33
2022/08/22 17:47:59;;;;;;;14.02;11.70;;;26.60;56.50;;;;;;4824746;54;21056;-28
2022/08/22 17:53:13;;;;;;;13.62;11.82;;;26.60;56.60;;;;;;4811779;54;21602;-29
2022/08/22 17:58:18;;;;;;;14.00;11.20;;;26.60;56.60;;;;;;4820413;54;21141;-33
2022/08/22 18:03:30;;;;;;;14.70;11.40;;;26.60;56.60;;;;;;4800540;58;21069;-34
2022/08/22 18:08:55;;;;;;;14.15;11.73;;;26.60;56.60;;;;;;4820479;54;21104;-37
2022/08/22 18:17:22;;;;;;;12.30;11.00;;;26.60;56.50;;;;;;4814882;54;21669;-34
2022/08/22 18:22:40;;;;;;;13.82;11.32;;;26.60;56.60;;;;;;4800473;56;21057;-28
2022/08/22 18:28:01;;;;;;;13.77;10.93;;;26.60;56.60;;;;;;4807581;54;21075;-27
2022/08/22 18:35:05;;;;;;;12.48;11.18;;;26.60;56.60;;;;;;4805663;54;21073;-37
2022/08/22 18:40:23;;;;;;;13.90;11.88;;;26.60;56.60;;;;;;4872206;54;21013;-33
2022/08/22 18:45:53;;;;;;;12.55;10.93;;;26.60;56.60;;;;;;4800536;55;21129;-31
2022/08/22 18:51:15;;;;;;;11.40;10.13;;;26.60;56.60;;;;;;4845293;53;21013;-29
2022/08/22 18:57:53;;;;;;;12.02;10.55;;;26.60;56.60;;;;;;4800026;54;20993;-26
2022/08/22 19:04:45;;;;;;;11.80;10.60;;;26.60;56.90;;;;;;4800460;55;21005;-28
2022/08/22 19:10:11;;;;;;;12.07;10.73;;;26.60;56.60;;;;;;4799649;55;21539;-30
2022/08/22 19:15:48;;;;;;;11.85;10.60;;;26.60;56.60;;;;;;4816174;54;21021;-28
2022/08/22 19:31:00;;;;;;;11.98;10.77;;;26.60;56.60;;;;;;4799844;54;21029;-28
2022/08/22 19:36:28;;;;;;;12.52;10.98;;;26.60;56.60;;;;;;4824350;54;21078;-29
2022/08/22 19:41:51;;;;;;;13.15;10.95;;;26.50;56.60;;;;;;4819028;54;21622;-30
2022/08/22 19:47:31;;;;;;;12.05;10.75;;;26.50;56.60;;;;;;4805247;54;21543;-25
2022/08/22 19:54:42;;;;;;;12.15;10.95;;;26.50;56.60;;;;;;4810109;54;21507;-32
2022/08/22 20:00:10;;;;;;;13.85;11.27;;;26.50;56.60;;;;;;4802429;54;21029;-34
2022/08/22 20:06:54;;;;;;;12.07;10.88;;;26.50;56.60;;;;;;4811160;54;20993;-33
2022/08/22 20:13:48;;;;;;;12.13;10.18;;;26.50;56.60;;;;;;4817548;54;21097;-28
2022/08/22 20:19:15;;;;;;;11.57;10.20;;;26.50;56.60;;;;;;4801819;54;21540;-33
2022/08/22 20:25:49;;;;;;;12.07;10.27;;;26.50;56.50;;;;;;4801814;54;20977;-33
2022/08/22 20:30:59;;;;;;;11.27;9.77;;;26.50;56.50;;;;;;4820437;54;21544;-35
2022/08/22 20:36:04;;;;;;;11.38;10.13;;;26.50;56.60;;;;;;4811525;53;20989;-29
2022/08/22 20:41:37;;;;;;;12.43;9.77;;;26.50;56.60;;;;;;4819118;54;21013;-28
2022/08/22 20:46:56;;;;;;;11.32;10.13;;;26.50;56.60;;;;;;4811832;54;21587;-32
2022/08/22 20:52:00;;;;;;;11.00;9.63;;;26.50;56.70;;;;;;4809026;54;21487;-29
2022/08/22 20:57:15;;;;;;;10.27;9.27;;;26.50;56.60;;;;;;4805597;54;20993;-29
2022/08/22 21:03:49;;;;;;;9.65;8.65;;;26.50;56.60;;;;;;4817345;54;21510;-29
2022/08/22 21:11:38;;;;;;;11.02;9.20;;;26.50;56.60;;;;;;4810579;54;21029;-31
2022/08/22 21:16:39;;;;;;;10.77;9.57;;;26.50;56.60;;;;;;4821847;54;21479;-26
2022/08/22 21:21:40;;;;;;;10.85;8.73;;;26.50;56.80;;;;;;4822873;54;21068;-26
2022/08/22 21:26:58;;;;;;;9.80;8.85;;;26.50;56.70;;;;;;4823226;54;21048;-36
2022/08/22 21:32:24;;;;;;;9.50;8.50;;;26.50;56.70;;;;;;4820010;54;21057;-29
2022/08/22 21:37:38;;;;;;;10.43;8.02;;;26.50;56.80;;;;;;4806033;54;21054;-26
2022/08/22 21:42:42;;;;;;;9.73;8.82;;;26.50;56.70;;;;;;4810956;54;21104;-36
2022/08/22 21:47:44;;;;;;;10.38;8.05;;;26.50;56.70;;;;;;4859664;54;21634;-30
2022/08/22 21:53:45;;;;;;;10.25;8.02;;;26.40;56.70;;;;;;4823513;54;21487;-31
2022/08/22 21:58:46;;;;;;;8.90;8.00;;;26.50;56.70;;;;;;4862777;54;21650;-32
2022/08/22 22:03:47;;;;;;;8.48;7.50;;;26.50;56.80;;;;;;4805197;54;21068;-33
2022/08/22 22:08:48;;;;;;;7.87;7.07;;;26.50;56.80;;;;;;4809190;54;21084;-29
2022/08/22 22:13:49;;;;;;;8.48;7.25;;;26.50;56.80;;;;;;4799872;54;21069;-34
2022/08/22 22:18:50;;;;;;;8.80;7.72;;;26.50;56.90;;;;;;4811205;54;21005;-38
2022/08/22 22:23:51;;;;;;;7.90;7.20;;;26.50;56.90;;;;;;4809388;54;21016;-37
2022/08/22 22:28:52;;;;;;;8.95;8.02;;;26.50;56.90;;;;;;4806153;54;21431;-32
2022/08/22 22:33:53;;;;;;;8.90;7.55;;;26.50;56.90;;;;;;4845252;54;21153;-37
2022/08/22 22:38:54;;;;;;;7.25;6.55;;;26.50;56.90;;;;;;4801946;54;21084;-39
2022/08/22 22:43:55;;;;;;;8.27;7.15;;;26.50;57.00;;;;;;4800467;54;21005;-32
2022/08/22 22:48:57;;;;;;;7.10;6.40;;;26.50;57.00;;;;;;4847813;54;21000;-34
2022/08/22 22:53:57;;;;;;;7.85;7.05;;;26.40;56.90;;;;;;4834592;54;21072;-36
2022/08/22 22:58:58;;;;;;;9.00;7.47;;;26.40;57.00;;;;;;4799858;58;21638;-33
2022/08/22 23:04:00;;;;;;;7.57;6.47;;;26.40;57.00;;;;;;4818803;54;21013;-37
2022/08/22 23:09:01;;;;;;;8.02;7.22;;;26.40;57.00;;;;;;4800433;58;21045;-31
2022/08/22 23:14:02;;;;;;;7.85;7.05;;;26.40;57.10;;;;;;4823368;54;21195;-38
2022/08/22 23:19:10;;;;;;;7.53;6.53;;;26.50;57.20;;;;;;4817995;54;21072;-33
2022/08/22 23:24:12;;;;;;;7.60;6.80;;;26.40;57.10;;;;;;4822078;54;21503;-28
2022/08/22 23:29:16;;;;;;;7.35;6.65;;;26.40;57.10;;;;;;4825851;54;21025;-26
2022/08/22 23:34:21;;;;;;;7.85;7.05;;;26.40;57.10;;;;;;4800592;55;21550;-26
2022/08/22 23:39:25;;;;;;;7.03;6.32;;;26.50;57.20;;;;;;4812906;54;21479;-30
2022/08/22 23:44:29;;;;;;;6.65;6.05;;;26.40;57.20;;;;;;4835433;54;21076;-31
2022/08/22 23:49:30;;;;;;;7.65;6.57;;;26.40;57.20;;;;;;4804822;54;21089;-31
2022/08/22 23:54:31;;;;;;;7.30;6.53;;;26.40;57.20;;;;;;4825300;54;21356;-29
2022/08/22 23:59:36;;;;;;;7.32;6.62;;;26.40;57.90;;;;;;4800161;55;21005;-33
